sensor_id;sensor_type;location;lat;lon;timestamp;P1;durP1;ratioP1;P2;durP2;ratioP2
11893;SDS011;6006;49.696;8.662;2023-04-25T00:00:35;4.40;;;4.00;;
11893;SDS011;6006;49.696;8.662;2023-04-25T00:03:02;4.63;;;3.87;;
11893;SDS011;6006;49.696;8.662;2023-04-25T00:05:32;4.93;;;4.17;;
11893;SDS011;6006;49.696;8.662;2023-04-25T00:08:02;4.83;;;4.20;;
11893;SDS011;6006;49.696;8.662;2023-04-25T00:10:29;4.23;;;3.60;;
11893;SDS011;6006;49.696;8.662;2023-04-25T00:12:57;4.00;;;3.53;;
11893;SDS011;6006;49.696;8.662;2023-04-25T00:15:23;4.97;;;4.00;;
11893;SDS011;6006;49.696;8.662;2023-04-25T00:17:51;4.37;;;3.73;;
11893;SDS011;6006;49.696;8.662;2023-04-25T00:20:18;5.03;;;4.53;;
11893;SDS011;6006;49.696;8.662;2023-04-25T00:22:48;5.27;;;4.73;;
11893;SDS011;6006;49.696;8.662;2023-04-25T00:25:15;4.53;;;3.77;;
11893;SDS011;6006;49.696;8.662;2023-04-25T00:27:41;4.17;;;3.77;;
11893;SDS011;6006;49.696;8.662;2023-04-25T00:30:09;9.03;;;3.93;;
11893;SDS011;6006;49.696;8.662;2023-04-25T00:32:36;5.73;;;4.27;;
11893;SDS011;6006;49.696;8.662;2023-04-25T00:35:03;4.60;;;4.17;;
11893;SDS011;6006;49.696;8.662;2023-04-25T00:37:31;4.87;;;4.37;;
11893;SDS011;6006;49.696;8.662;2023-04-25T00:39:59;5.07;;;4.17;;
11893;SDS011;6006;49.696;8.662;2023-04-25T00:42:26;5.20;;;4.43;;
11893;SDS011;6006;49.696;8.662;2023-04-25T00:44:54;5.27;;;4.77;;
11893;SDS011;6006;49.696;8.662;2023-04-25T00:47:22;5.33;;;4.37;;
11893;SDS011;6006;49.696;8.662;2023-04-25T00:49:49;6.43;;;4.43;;
11893;SDS011;6006;49.696;8.662;2023-04-25T00:52:18;5.03;;;4.27;;
11893;SDS011;6006;49.696;8.662;2023-04-25T00:54:45;6.33;;;4.50;;
11893;SDS011;6006;49.696;8.662;2023-04-25T00:57:13;6.27;;;4.93;;
11893;SDS011;6006;49.696;8.662;2023-04-25T00:59:40;4.77;;;4.23;;
11893;SDS011;6006;49.696;8.662;2023-04-25T01:02:11;5.00;;;4.50;;
11893;SDS011;6006;49.696;8.662;2023-04-25T01:04:38;6.00;;;4.73;;
11893;SDS011;6006;49.696;8.662;2023-04-25T01:07:05;6.87;;;5.17;;
11893;SDS011;6006;49.696;8.662;2023-04-25T01:09:33;5.90;;;5.00;;
11893;SDS011;6006;49.696;8.662;2023-04-25T01:12:01;6.87;;;4.27;;
11893;SDS011;6006;49.696;8.662;2023-04-25T01:14:29;5.43;;;4.93;;
11893;SDS011;6006;49.696;8.662;2023-04-25T01:16:56;4.33;;;3.93;;
11893;SDS011;6006;49.696;8.662;2023-04-25T01:19:24;5.50;;;4.50;;
11893;SDS011;6006;49.696;8.662;2023-04-25T01:21:52;6.93;;;5.10;;
11893;SDS011;6006;49.696;8.662;2023-04-25T01:24:19;6.50;;;5.20;;
11893;SDS011;6006;49.696;8.662;2023-04-25T01:26:47;6.37;;;4.53;;
11893;SDS011;6006;49.696;8.662;2023-04-25T01:29:15;7.13;;;5.30;;
11893;SDS011;6006;49.696;8.662;2023-04-25T01:31:43;6.93;;;5.40;;
11893;SDS011;6006;49.696;8.662;2023-04-25T01:34:11;5.27;;;4.77;;
11893;SDS011;6006;49.696;8.662;2023-04-25T01:36:38;5.20;;;4.67;;
11893;SDS011;6006;49.696;8.662;2023-04-25T01:39:07;6.23;;;5.17;;
11893;SDS011;6006;49.696;8.662;2023-04-25T01:41:35;5.33;;;4.83;;
11893;SDS011;6006;49.696;8.662;2023-04-25T01:44:02;7.93;;;5.53;;
11893;SDS011;6006;49.696;8.662;2023-04-25T01:46:29;6.03;;;5.00;;
11893;SDS011;6006;49.696;8.662;2023-04-25T01:48:56;6.03;;;4.80;;
11893;SDS011;6006;49.696;8.662;2023-04-25T01:51:23;6.63;;;4.73;;
11893;SDS011;6006;49.696;8.662;2023-04-25T01:53:50;5.30;;;4.70;;
11893;SDS011;6006;49.696;8.662;2023-04-25T01:56:19;8.00;;;4.37;;
11893;SDS011;6006;49.696;8.662;2023-04-25T01:58:46;6.03;;;4.90;;
11893;SDS011;6006;49.696;8.662;2023-04-25T02:01:12;6.20;;;5.07;;
11893;SDS011;6006;49.696;8.662;2023-04-25T02:03:39;6.43;;;5.77;;
11893;SDS011;6006;49.696;8.662;2023-04-25T02:06:06;7.20;;;5.87;;
11893;SDS011;6006;49.696;8.662;2023-04-25T02:08:33;7.17;;;5.50;;
11893;SDS011;6006;49.696;8.662;2023-04-25T02:11:00;6.60;;;5.87;;
11893;SDS011;6006;49.696;8.662;2023-04-25T02:13:29;8.60;;;5.80;;
11893;SDS011;6006;49.696;8.662;2023-04-25T02:15:56;6.93;;;5.50;;
11893;SDS011;6006;49.696;8.662;2023-04-25T02:18:23;6.83;;;5.63;;
11893;SDS011;6006;49.696;8.662;2023-04-25T02:20:51;7.17;;;6.27;;
11893;SDS011;6006;49.696;8.662;2023-04-25T02:23:18;6.97;;;5.90;;
11893;SDS011;6006;49.696;8.662;2023-04-25T02:25:44;8.20;;;6.40;;
11893;SDS011;6006;49.696;8.662;2023-04-25T02:28:11;8.20;;;6.47;;
11893;SDS011;6006;49.696;8.662;2023-04-25T02:30:40;8.77;;;6.40;;
11893;SDS011;6006;49.696;8.662;2023-04-25T02:33:06;7.03;;;5.90;;
11893;SDS011;6006;49.696;8.662;2023-04-25T02:35:33;8.67;;;6.80;;
11893;SDS011;6006;49.696;8.662;2023-04-25T02:38:00;8.67;;;7.00;;
11893;SDS011;6006;49.696;8.662;2023-04-25T02:40:27;8.50;;;6.67;;
11893;SDS011;6006;49.696;8.662;2023-04-25T02:42:54;10.07;;;7.97;;
11893;SDS011;6006;49.696;8.662;2023-04-25T02:45:20;9.43;;;7.67;;
11893;SDS011;6006;49.696;8.662;2023-04-25T02:47:49;9.80;;;7.30;;
11893;SDS011;6006;49.696;8.662;2023-04-25T02:50:15;9.73;;;7.03;;
11893;SDS011;6006;49.696;8.662;2023-04-25T02:52:43;8.57;;;7.37;;
11893;SDS011;6006;49.696;8.662;2023-04-25T02:55:10;9.97;;;7.27;;
11893;SDS011;6006;49.696;8.662;2023-04-25T02:57:38;10.50;;;7.50;;
11893;SDS011;6006;49.696;8.662;2023-04-25T03:00:05;8.93;;;7.10;;
11893;SDS011;6006;49.696;8.662;2023-04-25T03:02:33;10.60;;;7.87;;
11893;SDS011;6006;49.696;8.662;2023-04-25T03:05:01;12.50;;;8.87;;
11893;SDS011;6006;49.696;8.662;2023-04-25T03:07:28;11.17;;;7.70;;
11893;SDS011;6006;49.696;8.662;2023-04-25T03:09:55;13.50;;;8.67;;
11893;SDS011;6006;49.696;8.662;2023-04-25T03:12:22;10.27;;;7.67;;
11893;SDS011;6006;49.696;8.662;2023-04-25T03:14:48;9.87;;;7.97;;
11893;SDS011;6006;49.696;8.662;2023-04-25T03:17:15;12.60;;;8.20;;
11893;SDS011;6006;49.696;8.662;2023-04-25T03:19:42;9.17;;;7.97;;
11893;SDS011;6006;49.696;8.662;2023-04-25T03:22:11;9.67;;;7.53;;
11893;SDS011;6006;49.696;8.662;2023-04-25T03:24:37;10.97;;;7.90;;
11893;SDS011;6006;49.696;8.662;2023-04-25T03:27:05;12.30;;;8.87;;
11893;SDS011;6006;49.696;8.662;2023-04-25T03:29:32;10.37;;;8.10;;
11893;SDS011;6006;49.696;8.662;2023-04-25T03:31:58;9.70;;;7.43;;
11893;SDS011;6006;49.696;8.662;2023-04-25T03:34:25;12.20;;;8.43;;
11893;SDS011;6006;49.696;8.662;2023-04-25T03:36:53;10.67;;;7.60;;
11893;SDS011;6006;49.696;8.662;2023-04-25T03:39:21;11.00;;;8.20;;
11893;SDS011;6006;49.696;8.662;2023-04-25T03:41:48;9.57;;;7.50;;
11893;SDS011;6006;49.696;8.662;2023-04-25T03:44:14;10.43;;;7.90;;
11893;SDS011;6006;49.696;8.662;2023-04-25T03:46:41;10.10;;;7.90;;
11893;SDS011;6006;49.696;8.662;2023-04-25T03:49:08;11.43;;;8.07;;
11893;SDS011;6006;49.696;8.662;2023-04-25T03:51:35;10.13;;;7.80;;
11893;SDS011;6006;49.696;8.662;2023-04-25T03:54:02;9.87;;;7.83;;
11893;SDS011;6006;49.696;8.662;2023-04-25T03:56:30;9.83;;;7.70;;
11893;SDS011;6006;49.696;8.662;2023-04-25T03:58:57;9.83;;;7.57;;
11893;SDS011;6006;49.696;8.662;2023-04-25T04:01:24;11.53;;;7.90;;
11893;SDS011;6006;49.696;8.662;2023-04-25T04:03:51;10.07;;;7.23;;
11893;SDS011;6006;49.696;8.662;2023-04-25T04:06:18;12.30;;;8.23;;
11893;SDS011;6006;49.696;8.662;2023-04-25T04:08:45;12.23;;;8.53;;
11893;SDS011;6006;49.696;8.662;2023-04-25T04:11:12;10.77;;;8.40;;
11893;SDS011;6006;49.696;8.662;2023-04-25T04:13:40;12.17;;;8.80;;
11893;SDS011;6006;49.696;8.662;2023-04-25T04:16:07;11.67;;;8.13;;
11893;SDS011;6006;49.696;8.662;2023-04-25T04:18:34;10.20;;;7.67;;
11893;SDS011;6006;49.696;8.662;2023-04-25T04:21:01;10.10;;;7.37;;
11893;SDS011;6006;49.696;8.662;2023-04-25T04:23:28;10.63;;;7.93;;
11893;SDS011;6006;49.696;8.662;2023-04-25T04:25:55;11.20;;;7.33;;
11893;SDS011;6006;49.696;8.662;2023-04-25T04:28:22;8.83;;;7.27;;
11893;SDS011;6006;49.696;8.662;2023-04-25T04:30:50;8.53;;;6.93;;
11893;SDS011;6006;49.696;8.662;2023-04-25T04:33:17;9.43;;;7.37;;
11893;SDS011;6006;49.696;8.662;2023-04-25T04:35:45;9.17;;;7.43;;
11893;SDS011;6006;49.696;8.662;2023-04-25T04:38:13;10.60;;;7.63;;
11893;SDS011;6006;49.696;8.662;2023-04-25T04:40:40;10.27;;;7.17;;
11893;SDS011;6006;49.696;8.662;2023-04-25T04:43:08;8.73;;;6.80;;
11893;SDS011;6006;49.696;8.662;2023-04-25T04:45:35;9.57;;;7.43;;
11893;SDS011;6006;49.696;8.662;2023-04-25T04:48:05;8.53;;;7.43;;
11893;SDS011;6006;49.696;8.662;2023-04-25T04:50:32;8.30;;;6.83;;
11893;SDS011;6006;49.696;8.662;2023-04-25T04:52:58;10.17;;;7.47;;
11893;SDS011;6006;49.696;8.662;2023-04-25T04:55:25;9.97;;;7.80;;
11893;SDS011;6006;49.696;8.662;2023-04-25T04:57:52;8.50;;;7.13;;
11893;SDS011;6006;49.696;8.662;2023-04-25T05:00:19;10.60;;;7.77;;
11893;SDS011;6006;49.696;8.662;2023-04-25T05:02:46;10.23;;;7.57;;
11893;SDS011;6006;49.696;8.662;2023-04-25T05:05:15;7.60;;;6.33;;
11893;SDS011;6006;49.696;8.662;2023-04-25T05:07:42;8.90;;;6.83;;
11893;SDS011;6006;49.696;8.662;2023-04-25T05:10:09;8.33;;;6.60;;
11893;SDS011;6006;49.696;8.662;2023-04-25T05:12:36;10.10;;;7.53;;
11893;SDS011;6006;49.696;8.662;2023-04-25T05:15:03;8.17;;;6.43;;
11893;SDS011;6006;49.696;8.662;2023-04-25T05:17:30;8.90;;;6.57;;
11893;SDS011;6006;49.696;8.662;2023-04-25T05:19:57;9.83;;;7.40;;
11893;SDS011;6006;49.696;8.662;2023-04-25T05:22:26;8.30;;;6.83;;
11893;SDS011;6006;49.696;8.662;2023-04-25T05:24:53;10.13;;;7.33;;
11893;SDS011;6006;49.696;8.662;2023-04-25T05:27:19;8.97;;;7.63;;
11893;SDS011;6006;49.696;8.662;2023-04-25T05:29:46;10.43;;;8.13;;
11893;SDS011;6006;49.696;8.662;2023-04-25T05:32:13;10.30;;;7.73;;
11893;SDS011;6006;49.696;8.662;2023-04-25T05:34:40;13.23;;;8.63;;
11893;SDS011;6006;49.696;8.662;2023-04-25T05:37:07;10.33;;;8.53;;
11893;SDS011;6006;49.696;8.662;2023-04-25T05:39:35;14.03;;;8.70;;
11893;SDS011;6006;49.696;8.662;2023-04-25T05:42:02;12.93;;;9.00;;
11893;SDS011;6006;49.696;8.662;2023-04-25T05:44:30;10.37;;;8.20;;
11893;SDS011;6006;49.696;8.662;2023-04-25T05:46:56;12.60;;;8.40;;
11893;SDS011;6006;49.696;8.662;2023-04-25T05:49:23;11.10;;;8.50;;
11893;SDS011;6006;49.696;8.662;2023-04-25T05:51:50;10.00;;;8.17;;
11893;SDS011;6006;49.696;8.662;2023-04-25T05:54:17;10.63;;;8.10;;
11893;SDS011;6006;49.696;8.662;2023-04-25T05:56:45;9.73;;;8.17;;
11893;SDS011;6006;49.696;8.662;2023-04-25T05:59:12;9.63;;;6.77;;
11893;SDS011;6006;49.696;8.662;2023-04-25T06:01:39;7.47;;;5.83;;
11893;SDS011;6006;49.696;8.662;2023-04-25T06:04:06;6.80;;;6.00;;
11893;SDS011;6006;49.696;8.662;2023-04-25T06:06:33;6.77;;;5.57;;
11893;SDS011;6006;49.696;8.662;2023-04-25T06:09:00;9.10;;;5.63;;
11893;SDS011;6006;49.696;8.662;2023-04-25T06:11:26;7.93;;;6.13;;
11893;SDS011;6006;49.696;8.662;2023-04-25T06:13:54;9.53;;;6.40;;
11893;SDS011;6006;49.696;8.662;2023-04-25T06:16:21;5.90;;;5.13;;
11893;SDS011;6006;49.696;8.662;2023-04-25T06:18:50;9.70;;;5.30;;
11893;SDS011;6006;49.696;8.662;2023-04-25T06:21:17;9.73;;;5.63;;
11893;SDS011;6006;49.696;8.662;2023-04-25T06:23:44;9.27;;;4.87;;
11893;SDS011;6006;49.696;8.662;2023-04-25T06:26:11;7.63;;;5.27;;
11893;SDS011;6006;49.696;8.662;2023-04-25T06:28:38;8.27;;;4.97;;
11893;SDS011;6006;49.696;8.662;2023-04-25T06:31:06;7.33;;;4.67;;
11893;SDS011;6006;49.696;8.662;2023-04-25T06:33:33;8.37;;;4.10;;
11893;SDS011;6006;49.696;8.662;2023-04-25T06:36:00;8.40;;;4.60;;
11893;SDS011;6006;49.696;8.662;2023-04-25T06:38:27;10.17;;;4.13;;
11893;SDS011;6006;49.696;8.662;2023-04-25T06:40:53;8.10;;;4.23;;
11893;SDS011;6006;49.696;8.662;2023-04-25T06:43:20;8.00;;;4.30;;
11893;SDS011;6006;49.696;8.662;2023-04-25T06:45:47;5.97;;;4.23;;
11893;SDS011;6006;49.696;8.662;2023-04-25T06:48:15;6.93;;;4.50;;
11893;SDS011;6006;49.696;8.662;2023-04-25T06:50:42;7.57;;;5.30;;
11893;SDS011;6006;49.696;8.662;2023-04-25T06:53:09;9.67;;;4.53;;
11893;SDS011;6006;49.696;8.662;2023-04-25T06:55:36;11.30;;;5.53;;
11893;SDS011;6006;49.696;8.662;2023-04-25T06:58:03;8.63;;;5.23;;
11893;SDS011;6006;49.696;8.662;2023-04-25T07:00:30;10.47;;;5.27;;
11893;SDS011;6006;49.696;8.662;2023-04-25T07:02:57;7.07;;;4.90;;
11893;SDS011;6006;49.696;8.662;2023-04-25T07:05:25;9.23;;;4.23;;
11893;SDS011;6006;49.696;8.662;2023-04-25T07:07:52;6.93;;;4.87;;
11893;SDS011;6006;49.696;8.662;2023-04-25T07:10:19;8.97;;;4.93;;
11893;SDS011;6006;49.696;8.662;2023-04-25T07:12:46;11.97;;;4.73;;
11893;SDS011;6006;49.696;8.662;2023-04-25T07:15:13;7.30;;;4.47;;
11893;SDS011;6006;49.696;8.662;2023-04-25T07:17:39;8.40;;;6.43;;
11893;SDS011;6006;49.696;8.662;2023-04-25T07:20:07;5.90;;;4.23;;
11893;SDS011;6006;49.696;8.662;2023-04-25T07:22:36;8.87;;;4.37;;
11893;SDS011;6006;49.696;8.662;2023-04-25T07:25:03;7.90;;;4.87;;
11893;SDS011;6006;49.696;8.662;2023-04-25T07:27:31;6.93;;;4.63;;
11893;SDS011;6006;49.696;8.662;2023-04-25T07:29:58;5.83;;;3.50;;
11893;SDS011;6006;49.696;8.662;2023-04-25T07:32:25;5.07;;;3.83;;
11893;SDS011;6006;49.696;8.662;2023-04-25T07:34:52;6.40;;;3.40;;
11893;SDS011;6006;49.696;8.662;2023-04-25T07:37:18;6.00;;;3.20;;
11893;SDS011;6006;49.696;8.662;2023-04-25T07:39:47;5.63;;;2.90;;
11893;SDS011;6006;49.696;8.662;2023-04-25T07:42:13;6.30;;;3.13;;
11893;SDS011;6006;49.696;8.662;2023-04-25T07:44:40;5.47;;;3.53;;
11893;SDS011;6006;49.696;8.662;2023-04-25T07:47:07;5.87;;;3.47;;
11893;SDS011;6006;49.696;8.662;2023-04-25T07:49:35;5.20;;;3.50;;
11893;SDS011;6006;49.696;8.662;2023-04-25T07:52:03;5.77;;;3.13;;
11893;SDS011;6006;49.696;8.662;2023-04-25T07:54:31;6.20;;;3.10;;
11893;SDS011;6006;49.696;8.662;2023-04-25T07:56:59;3.67;;;2.90;;
11893;SDS011;6006;49.696;8.662;2023-04-25T07:59:27;4.00;;;2.80;;
11893;SDS011;6006;49.696;8.662;2023-04-25T08:01:54;7.30;;;3.87;;
11893;SDS011;6006;49.696;8.662;2023-04-25T08:04:22;4.73;;;3.20;;
11893;SDS011;6006;49.696;8.662;2023-04-25T08:06:49;5.50;;;3.70;;
11893;SDS011;6006;49.696;8.662;2023-04-25T08:09:16;4.83;;;3.70;;
11893;SDS011;6006;49.696;8.662;2023-04-25T08:11:42;4.47;;;3.40;;
11893;SDS011;6006;49.696;8.662;2023-04-25T08:14:11;9.97;;;3.90;;
11893;SDS011;6006;49.696;8.662;2023-04-25T08:16:38;7.17;;;3.10;;
11893;SDS011;6006;49.696;8.662;2023-04-25T08:19:05;6.80;;;3.37;;
11893;SDS011;6006;49.696;8.662;2023-04-25T08:21:32;6.90;;;3.47;;
11893;SDS011;6006;49.696;8.662;2023-04-25T08:23:58;4.57;;;3.37;;
11893;SDS011;6006;49.696;8.662;2023-04-25T08:26:25;8.47;;;4.00;;
11893;SDS011;6006;49.696;8.662;2023-04-25T08:28:52;7.47;;;4.60;;
11893;SDS011;6006;49.696;8.662;2023-04-25T08:31:20;6.10;;;4.23;;
11893;SDS011;6006;49.696;8.662;2023-04-25T08:33:47;5.40;;;3.67;;
11893;SDS011;6006;49.696;8.662;2023-04-25T08:36:16;5.53;;;4.07;;
11893;SDS011;6006;49.696;8.662;2023-04-25T08:38:43;6.23;;;4.17;;
11893;SDS011;6006;49.696;8.662;2023-04-25T08:41:10;7.53;;;3.53;;
11893;SDS011;6006;49.696;8.662;2023-04-25T08:43:38;6.53;;;4.30;;
11893;SDS011;6006;49.696;8.662;2023-04-25T08:46:08;8.00;;;5.03;;
11893;SDS011;6006;49.696;8.662;2023-04-25T08:48:38;4.70;;;3.43;;
11893;SDS011;6006;49.696;8.662;2023-04-25T08:51:08;6.40;;;3.67;;
11893;SDS011;6006;49.696;8.662;2023-04-25T08:53:37;6.13;;;3.83;;
11893;SDS011;6006;49.696;8.662;2023-04-25T08:56:07;6.07;;;3.40;;
11893;SDS011;6006;49.696;8.662;2023-04-25T08:58:38;5.77;;;3.30;;
11893;SDS011;6006;49.696;8.662;2023-04-25T09:01:05;8.23;;;3.33;;
11893;SDS011;6006;49.696;8.662;2023-04-25T09:03:32;3.50;;;3.00;;
11893;SDS011;6006;49.696;8.662;2023-04-25T09:06:01;4.50;;;3.27;;
11893;SDS011;6006;49.696;8.662;2023-04-25T09:08:29;7.10;;;3.33;;
11893;SDS011;6006;49.696;8.662;2023-04-25T09:10:56;5.10;;;3.77;;
11893;SDS011;6006;49.696;8.662;2023-04-25T09:13:26;5.47;;;3.23;;
11893;SDS011;6006;49.696;8.662;2023-04-25T09:15:55;7.20;;;3.37;;
11893;SDS011;6006;49.696;8.662;2023-04-25T09:18:22;4.33;;;2.27;;
11893;SDS011;6006;49.696;8.662;2023-04-25T09:20:51;4.70;;;3.73;;
11893;SDS011;6006;49.696;8.662;2023-04-25T09:23:20;5.27;;;3.23;;
11893;SDS011;6006;49.696;8.662;2023-04-25T09:25:48;11.17;;;7.43;;
11893;SDS011;6006;49.696;8.662;2023-04-25T09:28:17;6.03;;;4.10;;
11893;SDS011;6006;49.696;8.662;2023-04-25T09:30:54;11.57;;;4.13;;
11893;SDS011;6006;49.696;8.662;2023-04-25T09:33:23;6.17;;;3.97;;
11893;SDS011;6006;49.696;8.662;2023-04-25T09:35:54;6.50;;;4.27;;
11893;SDS011;6006;49.696;8.662;2023-04-25T09:38:29;8.77;;;3.80;;
11893;SDS011;6006;49.696;8.662;2023-04-25T09:40:57;5.00;;;2.83;;
11893;SDS011;6006;49.696;8.662;2023-04-25T09:43:25;6.17;;;2.80;;
11893;SDS011;6006;49.696;8.662;2023-04-25T09:45:53;3.80;;;3.40;;
11893;SDS011;6006;49.696;8.662;2023-04-25T09:48:22;5.00;;;3.77;;
11893;SDS011;6006;49.696;8.662;2023-04-25T09:51:03;5.63;;;2.90;;
11893;SDS011;6006;49.696;8.662;2023-04-25T09:53:32;3.50;;;3.13;;
11893;SDS011;6006;49.696;8.662;2023-04-25T09:55:59;4.73;;;3.10;;
11893;SDS011;6006;49.696;8.662;2023-04-25T09:58:30;6.43;;;2.80;;
11893;SDS011;6006;49.696;8.662;2023-04-25T10:00:59;3.23;;;2.53;;
11893;SDS011;6006;49.696;8.662;2023-04-25T10:03:26;6.20;;;2.87;;
11893;SDS011;6006;49.696;8.662;2023-04-25T10:05:56;5.27;;;3.03;;
11893;SDS011;6006;49.696;8.662;2023-04-25T10:08:25;3.13;;;2.80;;
11893;SDS011;6006;49.696;8.662;2023-04-25T10:10:59;4.27;;;2.60;;
11893;SDS011;6006;49.696;8.662;2023-04-25T10:13:28;3.20;;;2.63;;
11893;SDS011;6006;49.696;8.662;2023-04-25T10:15:55;4.20;;;2.70;;
11893;SDS011;6006;49.696;8.662;2023-04-25T10:18:23;5.33;;;3.00;;
11893;SDS011;6006;49.696;8.662;2023-04-25T10:20:51;2.97;;;2.67;;
11893;SDS011;6006;49.696;8.662;2023-04-25T10:23:19;6.47;;;3.00;;
11893;SDS011;6006;49.696;8.662;2023-04-25T10:25:47;4.63;;;2.70;;
11893;SDS011;6006;49.696;8.662;2023-04-25T10:28:16;14.63;;;8.40;;
11893;SDS011;6006;49.696;8.662;2023-04-25T10:30:59;5.00;;;2.43;;
11893;SDS011;6006;49.696;8.662;2023-04-25T10:33:34;3.00;;;2.27;;
11893;SDS011;6006;49.696;8.662;2023-04-25T10:36:11;3.53;;;2.17;;
11893;SDS011;6006;49.696;8.662;2023-04-25T10:38:38;3.33;;;2.17;;
11893;SDS011;6006;49.696;8.662;2023-04-25T10:41:06;4.57;;;2.33;;
11893;SDS011;6006;49.696;8.662;2023-04-25T10:43:37;2.03;;;1.93;;
11893;SDS011;6006;49.696;8.662;2023-04-25T10:46:13;2.43;;;1.90;;
11893;SDS011;6006;49.696;8.662;2023-04-25T10:48:46;2.50;;;2.30;;
11893;SDS011;6006;49.696;8.662;2023-04-25T10:51:16;2.27;;;1.70;;
11893;SDS011;6006;49.696;8.662;2023-04-25T10:53:44;3.47;;;2.40;;
11893;SDS011;6006;49.696;8.662;2023-04-25T10:56:11;3.20;;;2.40;;
11893;SDS011;6006;49.696;8.662;2023-04-25T10:58:44;5.30;;;2.50;;
11893;SDS011;6006;49.696;8.662;2023-04-25T11:01:12;3.00;;;2.40;;
11893;SDS011;6006;49.696;8.662;2023-04-25T11:03:40;3.20;;;2.10;;
11893;SDS011;6006;49.696;8.662;2023-04-25T11:06:14;2.60;;;2.40;;
11893;SDS011;6006;49.696;8.662;2023-04-25T11:08:49;2.77;;;2.17;;
11893;SDS011;6006;49.696;8.662;2023-04-25T11:11:16;3.77;;;2.37;;
11893;SDS011;6006;49.696;8.662;2023-04-25T11:13:46;3.90;;;2.30;;
11893;SDS011;6006;49.696;8.662;2023-04-25T11:16:14;4.00;;;2.97;;
11893;SDS011;6006;49.696;8.662;2023-04-25T11:18:41;6.40;;;2.40;;
11893;SDS011;6006;49.696;8.662;2023-04-25T11:21:08;4.50;;;2.97;;
11893;SDS011;6006;49.696;8.662;2023-04-25T11:23:35;3.87;;;2.57;;
11893;SDS011;6006;49.696;8.662;2023-04-25T11:26:02;5.27;;;2.80;;
11893;SDS011;6006;49.696;8.662;2023-04-25T11:28:29;3.43;;;2.60;;
11893;SDS011;6006;49.696;8.662;2023-04-25T11:30:57;5.70;;;2.57;;
11893;SDS011;6006;49.696;8.662;2023-04-25T11:33:24;4.13;;;2.60;;
11893;SDS011;6006;49.696;8.662;2023-04-25T11:35:52;3.10;;;2.50;;
11893;SDS011;6006;49.696;8.662;2023-04-25T11:38:20;2.50;;;2.30;;
11893;SDS011;6006;49.696;8.662;2023-04-25T11:40:49;3.60;;;2.50;;
11893;SDS011;6006;49.696;8.662;2023-04-25T11:43:17;2.80;;;2.43;;
11893;SDS011;6006;49.696;8.662;2023-04-25T11:45:46;3.27;;;2.90;;
11893;SDS011;6006;49.696;8.662;2023-04-25T11:48:15;4.07;;;2.80;;
11893;SDS011;6006;49.696;8.662;2023-04-25T11:50:42;5.40;;;2.67;;
11893;SDS011;6006;49.696;8.662;2023-04-25T11:53:08;2.93;;;2.63;;
11893;SDS011;6006;49.696;8.662;2023-04-25T11:55:36;3.90;;;2.40;;
11893;SDS011;6006;49.696;8.662;2023-04-25T11:58:03;3.90;;;3.07;;
11893;SDS011;6006;49.696;8.662;2023-04-25T12:00:31;5.37;;;3.00;;
11893;SDS011;6006;49.696;8.662;2023-04-25T12:02:58;7.23;;;3.20;;
11893;SDS011;6006;49.696;8.662;2023-04-25T12:05:27;6.67;;;3.63;;
11893;SDS011;6006;49.696;8.662;2023-04-25T12:07:56;5.70;;;3.67;;
11893;SDS011;6006;49.696;8.662;2023-04-25T12:10:24;4.17;;;3.33;;
11893;SDS011;6006;49.696;8.662;2023-04-25T12:12:51;4.60;;;3.20;;
11893;SDS011;6006;49.696;8.662;2023-04-25T12:15:22;4.60;;;3.20;;
11893;SDS011;6006;49.696;8.662;2023-04-25T12:17:51;5.57;;;3.00;;
11893;SDS011;6006;49.696;8.662;2023-04-25T12:20:19;3.87;;;2.97;;
11893;SDS011;6006;49.696;8.662;2023-04-25T12:22:50;5.50;;;2.93;;
11893;SDS011;6006;49.696;8.662;2023-04-25T12:28:09;3.67;;;2.90;;
11893;SDS011;6006;49.696;8.662;2023-04-25T12:30:55;3.10;;;2.87;;
11893;SDS011;6006;49.696;8.662;2023-04-25T12:33:23;7.63;;;4.13;;
11893;SDS011;6006;49.696;8.662;2023-04-25T12:35:51;5.47;;;3.50;;
11893;SDS011;6006;49.696;8.662;2023-04-25T12:38:23;4.80;;;3.10;;
11893;SDS011;6006;49.696;8.662;2023-04-25T12:40:51;5.67;;;3.60;;
11893;SDS011;6006;49.696;8.662;2023-04-25T12:43:18;4.77;;;2.80;;
11893;SDS011;6006;49.696;8.662;2023-04-25T12:45:47;5.07;;;3.80;;
11893;SDS011;6006;49.696;8.662;2023-04-25T12:48:13;4.57;;;3.73;;
11893;SDS011;6006;49.696;8.662;2023-04-25T12:50:40;5.07;;;3.60;;
11893;SDS011;6006;49.696;8.662;2023-04-25T12:53:07;4.50;;;3.30;;
11893;SDS011;6006;49.696;8.662;2023-04-25T12:55:35;3.60;;;3.30;;
11893;SDS011;6006;49.696;8.662;2023-04-25T12:58:02;3.90;;;3.13;;
11893;SDS011;6006;49.696;8.662;2023-04-25T13:00:29;4.47;;;2.93;;
11893;SDS011;6006;49.696;8.662;2023-04-25T13:02:56;3.90;;;3.03;;
11893;SDS011;6006;49.696;8.662;2023-04-25T13:05:24;4.77;;;3.40;;
11893;SDS011;6006;49.696;8.662;2023-04-25T13:07:51;5.70;;;3.30;;
11893;SDS011;6006;49.696;8.662;2023-04-25T13:10:18;5.67;;;3.47;;
11893;SDS011;6006;49.696;8.662;2023-04-25T13:12:46;5.70;;;3.63;;
11893;SDS011;6006;49.696;8.662;2023-04-25T13:15:13;6.47;;;3.67;;
11893;SDS011;6006;49.696;8.662;2023-04-25T13:17:41;5.77;;;3.47;;
11893;SDS011;6006;49.696;8.662;2023-04-25T13:20:08;6.67;;;4.43;;
11893;SDS011;6006;49.696;8.662;2023-04-25T13:22:36;5.37;;;3.20;;
11893;SDS011;6006;49.696;8.662;2023-04-25T13:25:04;5.93;;;3.60;;
11893;SDS011;6006;49.696;8.662;2023-04-25T13:27:32;4.17;;;3.23;;
11893;SDS011;6006;49.696;8.662;2023-04-25T13:30:02;3.37;;;3.07;;
11893;SDS011;6006;49.696;8.662;2023-04-25T13:32:32;6.03;;;3.53;;
11893;SDS011;6006;49.696;8.662;2023-04-25T13:35:01;3.93;;;3.20;;
11893;SDS011;6006;49.696;8.662;2023-04-25T13:37:28;5.10;;;3.07;;
11893;SDS011;6006;49.696;8.662;2023-04-25T13:39:57;4.40;;;3.00;;
11893;SDS011;6006;49.696;8.662;2023-04-25T13:42:25;3.80;;;2.73;;
11893;SDS011;6006;49.696;8.662;2023-04-25T13:44:51;4.43;;;2.60;;
11893;SDS011;6006;49.696;8.662;2023-04-25T13:47:20;7.00;;;3.03;;
11893;SDS011;6006;49.696;8.662;2023-04-25T13:49:46;4.77;;;2.90;;
11893;SDS011;6006;49.696;8.662;2023-04-25T13:52:13;5.00;;;2.93;;
11893;SDS011;6006;49.696;8.662;2023-04-25T13:54:40;2.70;;;2.50;;
11893;SDS011;6006;49.696;8.662;2023-04-25T13:57:07;6.20;;;2.80;;
11893;SDS011;6006;49.696;8.662;2023-04-25T13:59:35;4.10;;;2.70;;
11893;SDS011;6006;49.696;8.662;2023-04-25T14:02:02;4.20;;;2.80;;
11893;SDS011;6006;49.696;8.662;2023-04-25T14:04:30;4.83;;;3.57;;
11893;SDS011;6006;49.696;8.662;2023-04-25T14:06:57;4.97;;;2.77;;
11893;SDS011;6006;49.696;8.662;2023-04-25T14:09:24;5.80;;;3.10;;
11893;SDS011;6006;49.696;8.662;2023-04-25T14:11:52;4.43;;;2.23;;
11893;SDS011;6006;49.696;8.662;2023-04-25T14:14:19;3.47;;;2.60;;
11893;SDS011;6006;49.696;8.662;2023-04-25T14:16:46;5.83;;;2.50;;
11893;SDS011;6006;49.696;8.662;2023-04-25T14:19:14;4.63;;;2.70;;
11893;SDS011;6006;49.696;8.662;2023-04-25T14:21:42;2.87;;;2.27;;
11893;SDS011;6006;49.696;8.662;2023-04-25T14:24:09;4.13;;;2.53;;
11893;SDS011;6006;49.696;8.662;2023-04-25T14:26:36;2.70;;;2.00;;
11893;SDS011;6006;49.696;8.662;2023-04-25T14:29:04;4.07;;;2.30;;
11893;SDS011;6006;49.696;8.662;2023-04-25T14:31:31;5.70;;;2.77;;
11893;SDS011;6006;49.696;8.662;2023-04-25T14:33:59;3.33;;;2.60;;
11893;SDS011;6006;49.696;8.662;2023-04-25T14:36:25;5.20;;;2.30;;
11893;SDS011;6006;49.696;8.662;2023-04-25T14:38:55;4.53;;;2.63;;
11893;SDS011;6006;49.696;8.662;2023-04-25T14:41:23;4.57;;;2.53;;
11893;SDS011;6006;49.696;8.662;2023-04-25T14:43:50;3.33;;;1.93;;
11893;SDS011;6006;49.696;8.662;2023-04-25T14:46:17;4.77;;;2.70;;
11893;SDS011;6006;49.696;8.662;2023-04-25T14:48:44;2.07;;;1.90;;
11893;SDS011;6006;49.696;8.662;2023-04-25T14:51:12;5.50;;;2.37;;
11893;SDS011;6006;49.696;8.662;2023-04-25T14:53:39;5.47;;;2.30;;
11893;SDS011;6006;49.696;8.662;2023-04-25T14:56:07;2.33;;;2.13;;
11893;SDS011;6006;49.696;8.662;2023-04-25T14:58:34;5.70;;;2.57;;
11893;SDS011;6006;49.696;8.662;2023-04-25T15:01:02;2.97;;;2.20;;
11893;SDS011;6006;49.696;8.662;2023-04-25T15:03:29;3.70;;;2.50;;
11893;SDS011;6006;49.696;8.662;2023-04-25T15:05:56;7.87;;;3.27;;